sensor_id;sensor_type;location;lat;lon;timestamp;P1;durP1;ratioP1;P2;durP2;ratioP2
10226;SDS011;15634;48.766;2.272;2023-04-03T00:01:05;19.15;;;11.82;;
10226;SDS011;15634;48.766;2.272;2023-04-03T00:03:32;19.55;;;12.50;;
10226;SDS011;15634;48.766;2.272;2023-04-03T00:05:59;18.73;;;12.43;;
10226;SDS011;15634;48.766;2.272;2023-04-03T00:08:25;17.05;;;12.68;;
10226;SDS011;15634;48.766;2.272;2023-04-03T00:10:52;20.23;;;13.05;;
10226;SDS011;15634;48.766;2.272;2023-04-03T00:13:19;19.00;;;12.45;;
10226;SDS011;15634;48.766;2.272;2023-04-03T00:15:47;17.67;;;12.45;;
10226;SDS011;15634;48.766;2.272;2023-04-03T00:18:13;19.98;;;12.15;;
10226;SDS011;15634;48.766;2.272;2023-04-03T00:20:40;21.58;;;14.13;;
10226;SDS011;15634;48.766;2.272;2023-04-03T00:23:07;20.83;;;13.35;;
10226;SDS011;15634;48.766;2.272;2023-04-03T00:25:34;23.00;;;14.15;;
10226;SDS011;15634;48.766;2.272;2023-04-03T00:28:01;26.05;;;14.75;;
10226;SDS011;15634;48.766;2.272;2023-04-03T00:30:27;23.88;;;14.85;;
10226;SDS011;15634;48.766;2.272;2023-04-03T00:32:56;22.15;;;14.60;;
10226;SDS011;15634;48.766;2.272;2023-04-03T00:35:23;21.58;;;14.48;;
10226;SDS011;15634;48.766;2.272;2023-04-03T00:37:50;23.02;;;14.95;;
10226;SDS011;15634;48.766;2.272;2023-04-03T00:40:18;22.42;;;14.10;;
10226;SDS011;15634;48.766;2.272;2023-04-03T00:42:45;22.60;;;13.63;;
10226;SDS011;15634;48.766;2.272;2023-04-03T00:45:27;20.10;;;14.18;;
10226;SDS011;15634;48.766;2.272;2023-04-03T00:48:01;21.73;;;13.65;;
10226;SDS011;15634;48.766;2.272;2023-04-03T00:50:31;21.30;;;13.00;;
10226;SDS011;15634;48.766;2.272;2023-04-03T00:52:59;20.77;;;13.85;;
10226;SDS011;15634;48.766;2.272;2023-04-03T00:55:26;21.02;;;13.68;;
10226;SDS011;15634;48.766;2.272;2023-04-03T00:57:53;21.05;;;13.50;;
10226;SDS011;15634;48.766;2.272;2023-04-03T01:00:21;23.27;;;14.25;;
10226;SDS011;15634;48.766;2.272;2023-04-03T01:02:48;19.98;;;13.05;;
10226;SDS011;15634;48.766;2.272;2023-04-03T01:05:17;21.77;;;14.15;;
10226;SDS011;15634;48.766;2.272;2023-04-03T01:07:45;28.08;;;15.23;;
10226;SDS011;15634;48.766;2.272;2023-04-03T01:10:13;24.33;;;14.13;;
10226;SDS011;15634;48.766;2.272;2023-04-03T01:12:42;23.90;;;14.70;;
10226;SDS011;15634;48.766;2.272;2023-04-03T01:15:11;20.63;;;14.05;;
10226;SDS011;15634;48.766;2.272;2023-04-03T01:17:40;23.02;;;13.52;;
10226;SDS011;15634;48.766;2.272;2023-04-03T01:23:14;22.55;;;14.00;;
10226;SDS011;15634;48.766;2.272;2023-04-03T01:25:48;25.88;;;14.70;;
10226;SDS011;15634;48.766;2.272;2023-04-03T01:28:17;23.02;;;13.98;;
10226;SDS011;15634;48.766;2.272;2023-04-03T01:30:46;24.70;;;14.25;;
10226;SDS011;15634;48.766;2.272;2023-04-03T01:33:16;23.73;;;14.50;;
10226;SDS011;15634;48.766;2.272;2023-04-03T01:35:42;23.40;;;13.85;;
10226;SDS011;15634;48.766;2.272;2023-04-03T01:38:09;22.80;;;13.40;;
10226;SDS011;15634;48.766;2.272;2023-04-03T01:40:36;19.80;;;13.48;;
10226;SDS011;15634;48.766;2.272;2023-04-03T01:43:03;22.17;;;13.55;;
10226;SDS011;15634;48.766;2.272;2023-04-03T01:45:30;22.00;;;13.68;;
10226;SDS011;15634;48.766;2.272;2023-04-03T01:47:56;23.90;;;13.23;;
10226;SDS011;15634;48.766;2.272;2023-04-03T01:50:24;23.73;;;14.18;;
10226;SDS011;15634;48.766;2.272;2023-04-03T01:52:51;23.63;;;13.93;;
10226;SDS011;15634;48.766;2.272;2023-04-03T01:55:18;23.23;;;14.18;;
10226;SDS011;15634;48.766;2.272;2023-04-03T01:57:45;21.73;;;14.15;;
10226;SDS011;15634;48.766;2.272;2023-04-03T02:00:11;23.70;;;13.32;;
10226;SDS011;15634;48.766;2.272;2023-04-03T02:02:39;27.88;;;16.38;;
10226;SDS011;15634;48.766;2.272;2023-04-03T02:05:06;23.40;;;14.20;;
10226;SDS011;15634;48.766;2.272;2023-04-03T02:07:35;27.73;;;15.15;;
10226;SDS011;15634;48.766;2.272;2023-04-03T02:10:02;23.77;;;14.07;;
10226;SDS011;15634;48.766;2.272;2023-04-03T02:12:28;25.08;;;14.30;;
10226;SDS011;15634;48.766;2.272;2023-04-03T02:14:55;23.80;;;14.20;;
10226;SDS011;15634;48.766;2.272;2023-04-03T02:17:22;25.52;;;14.73;;
10226;SDS011;15634;48.766;2.272;2023-04-03T02:19:48;25.60;;;15.02;;
10226;SDS011;15634;48.766;2.272;2023-04-03T02:22:15;23.42;;;14.65;;
10226;SDS011;15634;48.766;2.272;2023-04-03T02:24:43;23.42;;;14.98;;
10226;SDS011;15634;48.766;2.272;2023-04-03T02:27:10;26.25;;;15.98;;
10226;SDS011;15634;48.766;2.272;2023-04-03T02:29:37;26.90;;;16.02;;
10226;SDS011;15634;48.766;2.272;2023-04-03T02:32:03;23.77;;;14.50;;
10226;SDS011;15634;48.766;2.272;2023-04-03T02:34:31;24.45;;;15.13;;
10226;SDS011;15634;48.766;2.272;2023-04-03T02:36:57;26.08;;;14.57;;
10226;SDS011;15634;48.766;2.272;2023-04-03T02:39:24;23.73;;;14.68;;
10226;SDS011;15634;48.766;2.272;2023-04-03T02:41:52;27.88;;;15.07;;
10226;SDS011;15634;48.766;2.272;2023-04-03T02:44:19;22.85;;;14.77;;
10226;SDS011;15634;48.766;2.272;2023-04-03T02:46:46;23.83;;;13.98;;
10226;SDS011;15634;48.766;2.272;2023-04-03T02:49:12;22.20;;;14.95;;
10226;SDS011;15634;48.766;2.272;2023-04-03T02:51:40;24.77;;;14.70;;
10226;SDS011;15634;48.766;2.272;2023-04-03T02:54:07;23.70;;;14.40;;
10226;SDS011;15634;48.766;2.272;2023-04-03T02:56:34;20.27;;;13.52;;
10226;SDS011;15634;48.766;2.272;2023-04-03T02:59:02;22.50;;;13.88;;
10226;SDS011;15634;48.766;2.272;2023-04-03T03:01:30;22.77;;;13.90;;
10226;SDS011;15634;48.766;2.272;2023-04-03T03:03:57;19.60;;;13.02;;
10226;SDS011;15634;48.766;2.272;2023-04-03T03:06:25;22.90;;;13.82;;
10226;SDS011;15634;48.766;2.272;2023-04-03T03:08:51;19.95;;;13.35;;
10226;SDS011;15634;48.766;2.272;2023-04-03T03:11:18;20.60;;;13.07;;
10226;SDS011;15634;48.766;2.272;2023-04-03T03:13:45;21.15;;;12.82;;
10226;SDS011;15634;48.766;2.272;2023-04-03T03:16:13;20.02;;;13.32;;
10226;SDS011;15634;48.766;2.272;2023-04-03T03:18:39;19.38;;;12.90;;
10226;SDS011;15634;48.766;2.272;2023-04-03T03:21:06;21.13;;;12.68;;
10226;SDS011;15634;48.766;2.272;2023-04-03T03:23:33;22.45;;;12.75;;
10226;SDS011;15634;48.766;2.272;2023-04-03T03:26:00;20.50;;;13.45;;
10226;SDS011;15634;48.766;2.272;2023-04-03T03:28:29;18.27;;;12.23;;
10226;SDS011;15634;48.766;2.272;2023-04-03T03:30:57;18.95;;;13.10;;
10226;SDS011;15634;48.766;2.272;2023-04-03T03:33:25;21.27;;;12.30;;
10226;SDS011;15634;48.766;2.272;2023-04-03T03:35:52;18.17;;;11.63;;
10226;SDS011;15634;48.766;2.272;2023-04-03T03:38:19;20.33;;;11.63;;
10226;SDS011;15634;48.766;2.272;2023-04-03T03:40:47;16.73;;;11.93;;
10226;SDS011;15634;48.766;2.272;2023-04-03T03:43:14;18.38;;;11.18;;
10226;SDS011;15634;48.766;2.272;2023-04-03T03:45:40;16.23;;;10.75;;
10226;SDS011;15634;48.766;2.272;2023-04-03T03:48:07;16.70;;;11.30;;
10226;SDS011;15634;48.766;2.272;2023-04-03T03:50:35;17.48;;;11.13;;
10226;SDS011;15634;48.766;2.272;2023-04-03T03:53:02;18.17;;;11.60;;
10226;SDS011;15634;48.766;2.272;2023-04-03T03:55:29;15.63;;;10.35;;
10226;SDS011;15634;48.766;2.272;2023-04-03T03:57:55;19.55;;;11.05;;
10226;SDS011;15634;48.766;2.272;2023-04-03T04:00:22;16.52;;;10.98;;
10226;SDS011;15634;48.766;2.272;2023-04-03T04:02:49;16.13;;;10.25;;
10226;SDS011;15634;48.766;2.272;2023-04-03T04:05:15;16.55;;;10.80;;
10226;SDS011;15634;48.766;2.272;2023-04-03T04:07:44;14.98;;;10.52;;
10226;SDS011;15634;48.766;2.272;2023-04-03T04:10:10;16.42;;;10.55;;
10226;SDS011;15634;48.766;2.272;2023-04-03T04:12:38;16.25;;;10.32;;
10226;SDS011;15634;48.766;2.272;2023-04-03T04:15:05;16.23;;;10.95;;
10226;SDS011;15634;48.766;2.272;2023-04-03T04:17:33;15.48;;;10.55;;
10226;SDS011;15634;48.766;2.272;2023-04-03T04:20:00;14.43;;;10.00;;
10226;SDS011;15634;48.766;2.272;2023-04-03T04:22:27;15.35;;;10.38;;
10226;SDS011;15634;48.766;2.272;2023-04-03T04:24:55;14.68;;;9.73;;
10226;SDS011;15634;48.766;2.272;2023-04-03T04:27:22;18.00;;;10.63;;
10226;SDS011;15634;48.766;2.272;2023-04-03T04:29:48;17.27;;;10.00;;
10226;SDS011;15634;48.766;2.272;2023-04-03T04:32:15;15.45;;;10.10;;
10226;SDS011;15634;48.766;2.272;2023-04-03T04:34:42;15.07;;;10.05;;
10226;SDS011;15634;48.766;2.272;2023-04-03T04:37:08;14.65;;;10.25;;
10226;SDS011;15634;48.766;2.272;2023-04-03T04:39:35;17.50;;;10.85;;
10226;SDS011;15634;48.766;2.272;2023-04-03T04:42:03;16.15;;;10.57;;
10226;SDS011;15634;48.766;2.272;2023-04-03T04:44:32;16.63;;;10.68;;
10226;SDS011;15634;48.766;2.272;2023-04-03T04:46:58;17.27;;;10.32;;
10226;SDS011;15634;48.766;2.272;2023-04-03T04:49:25;14.23;;;9.57;;
10226;SDS011;15634;48.766;2.272;2023-04-03T04:51:52;17.45;;;10.02;;
10226;SDS011;15634;48.766;2.272;2023-04-03T04:54:18;15.13;;;10.43;;
10226;SDS011;15634;48.766;2.272;2023-04-03T04:56:45;14.90;;;10.32;;
10226;SDS011;15634;48.766;2.272;2023-04-03T04:59:13;13.35;;;9.23;;
10226;SDS011;15634;48.766;2.272;2023-04-03T05:01:40;16.27;;;9.98;;
10226;SDS011;15634;48.766;2.272;2023-04-03T05:04:06;15.63;;;10.07;;
10226;SDS011;15634;48.766;2.272;2023-04-03T05:06:34;17.63;;;9.75;;
10226;SDS011;15634;48.766;2.272;2023-04-03T05:09:00;14.13;;;9.50;;
10226;SDS011;15634;48.766;2.272;2023-04-03T05:11:27;13.75;;;9.75;;
10226;SDS011;15634;48.766;2.272;2023-04-03T05:13:54;16.23;;;10.27;;
10226;SDS011;15634;48.766;2.272;2023-04-03T05:16:22;14.18;;;9.20;;
10226;SDS011;15634;48.766;2.272;2023-04-03T05:18:49;17.40;;;9.40;;
10226;SDS011;15634;48.766;2.272;2023-04-03T05:21:15;16.45;;;9.68;;
10226;SDS011;15634;48.766;2.272;2023-04-03T05:23:43;16.42;;;10.13;;
10226;SDS011;15634;48.766;2.272;2023-04-03T05:26:10;14.73;;;9.80;;
10226;SDS011;15634;48.766;2.272;2023-04-03T05:28:36;16.20;;;9.70;;
10226;SDS011;15634;48.766;2.272;2023-04-03T05:31:03;14.30;;;9.75;;
10226;SDS011;15634;48.766;2.272;2023-04-03T05:33:31;14.10;;;9.45;;
10226;SDS011;15634;48.766;2.272;2023-04-03T05:36:01;14.60;;;9.70;;
10226;SDS011;15634;48.766;2.272;2023-04-03T05:38:28;15.10;;;9.75;;
10226;SDS011;15634;48.766;2.272;2023-04-03T05:40:55;16.58;;;9.85;;
10226;SDS011;15634;48.766;2.272;2023-04-03T05:43:22;16.40;;;10.38;;
10226;SDS011;15634;48.766;2.272;2023-04-03T05:45:48;13.25;;;9.43;;
10226;SDS011;15634;48.766;2.272;2023-04-03T05:48:15;13.90;;;9.15;;
10226;SDS011;15634;48.766;2.272;2023-04-03T05:50:43;13.93;;;9.85;;
10226;SDS011;15634;48.766;2.272;2023-04-03T05:53:12;13.85;;;9.32;;
10226;SDS011;15634;48.766;2.272;2023-04-03T05:55:43;14.15;;;8.98;;
10226;SDS011;15634;48.766;2.272;2023-04-03T05:58:10;14.05;;;9.88;;
10226;SDS011;15634;48.766;2.272;2023-04-03T06:00:36;14.77;;;9.80;;
10226;SDS011;15634;48.766;2.272;2023-04-03T06:03:03;13.48;;;9.80;;
10226;SDS011;15634;48.766;2.272;2023-04-03T06:05:30;14.02;;;9.63;;
10226;SDS011;15634;48.766;2.272;2023-04-03T06:07:58;15.77;;;9.15;;
10226;SDS011;15634;48.766;2.272;2023-04-03T06:10:25;15.10;;;10.32;;
10226;SDS011;15634;48.766;2.272;2023-04-03T06:12:52;15.48;;;9.60;;
10226;SDS011;15634;48.766;2.272;2023-04-03T06:15:19;14.13;;;9.35;;
10226;SDS011;15634;48.766;2.272;2023-04-03T06:17:46;14.10;;;10.27;;
10226;SDS011;15634;48.766;2.272;2023-04-03T06:20:13;16.38;;;9.38;;
10226;SDS011;15634;48.766;2.272;2023-04-03T06:22:40;14.93;;;9.32;;
10226;SDS011;15634;48.766;2.272;2023-04-03T06:25:08;12.88;;;9.35;;
10226;SDS011;15634;48.766;2.272;2023-04-03T06:27:36;15.93;;;10.13;;
10226;SDS011;15634;48.766;2.272;2023-04-03T06:30:03;16.35;;;10.13;;
10226;SDS011;15634;48.766;2.272;2023-04-03T06:32:30;13.93;;;9.88;;
10226;SDS011;15634;48.766;2.272;2023-04-03T06:34:57;14.88;;;9.55;;
10226;SDS011;15634;48.766;2.272;2023-04-03T06:37:23;13.30;;;9.80;;
10226;SDS011;15634;48.766;2.272;2023-04-03T06:39:53;16.45;;;9.77;;
10226;SDS011;15634;48.766;2.272;2023-04-03T06:42:21;14.35;;;9.77;;
10226;SDS011;15634;48.766;2.272;2023-04-03T06:44:47;15.38;;;9.82;;
10226;SDS011;15634;48.766;2.272;2023-04-03T06:47:14;14.65;;;9.95;;
10226;SDS011;15634;48.766;2.272;2023-04-03T06:49:41;15.35;;;9.40;;
10226;SDS011;15634;48.766;2.272;2023-04-03T06:52:08;15.55;;;9.88;;
10226;SDS011;15634;48.766;2.272;2023-04-03T06:54:37;13.65;;;9.35;;
10226;SDS011;15634;48.766;2.272;2023-04-03T06:57:03;13.50;;;9.82;;
10226;SDS011;15634;48.766;2.272;2023-04-03T06:59:32;14.10;;;9.00;;
10226;SDS011;15634;48.766;2.272;2023-04-03T07:02:01;15.13;;;10.02;;
10226;SDS011;15634;48.766;2.272;2023-04-03T07:04:28;16.42;;;9.73;;
10226;SDS011;15634;48.766;2.272;2023-04-03T07:06:55;15.00;;;9.15;;
10226;SDS011;15634;48.766;2.272;2023-04-03T07:09:22;14.52;;;9.70;;
10226;SDS011;15634;48.766;2.272;2023-04-03T07:11:49;13.70;;;9.48;;
10226;SDS011;15634;48.766;2.272;2023-04-03T07:14:15;14.05;;;9.10;;
10226;SDS011;15634;48.766;2.272;2023-04-03T07:16:43;13.82;;;9.20;;
10226;SDS011;15634;48.766;2.272;2023-04-03T07:19:10;12.88;;;8.98;;
10226;SDS011;15634;48.766;2.272;2023-04-03T07:21:36;16.27;;;9.18;;
10226;SDS011;15634;48.766;2.272;2023-04-03T07:24:03;12.43;;;8.40;;
10226;SDS011;15634;48.766;2.272;2023-04-03T07:26:30;14.20;;;8.52;;
10226;SDS011;15634;48.766;2.272;2023-04-03T07:28:56;12.30;;;8.43;;
10226;SDS011;15634;48.766;2.272;2023-04-03T07:31:23;13.70;;;8.57;;
10226;SDS011;15634;48.766;2.272;2023-04-03T07:33:51;13.88;;;9.15;;
10226;SDS011;15634;48.766;2.272;2023-04-03T07:36:19;12.77;;;8.65;;
10226;SDS011;15634;48.766;2.272;2023-04-03T07:38:48;12.15;;;8.75;;
10226;SDS011;15634;48.766;2.272;2023-04-03T07:41:15;12.25;;;8.27;;
10226;SDS011;15634;48.766;2.272;2023-04-03T07:43:45;13.98;;;8.75;;
10226;SDS011;15634;48.766;2.272;2023-04-03T07:46:12;14.15;;;8.20;;
10226;SDS011;15634;48.766;2.272;2023-04-03T07:48:39;11.35;;;8.40;;
10226;SDS011;15634;48.766;2.272;2023-04-03T07:51:07;9.80;;;7.68;;
10226;SDS011;15634;48.766;2.272;2023-04-03T07:53:33;12.98;;;7.60;;
10226;SDS011;15634;48.766;2.272;2023-04-03T07:56:00;11.10;;;7.60;;
10226;SDS011;15634;48.766;2.272;2023-04-03T07:58:27;14.05;;;7.90;;
10226;SDS011;15634;48.766;2.272;2023-04-03T08:00:55;14.63;;;7.78;;
10226;SDS011;15634;48.766;2.272;2023-04-03T08:03:22;10.82;;;7.47;;
10226;SDS011;15634;48.766;2.272;2023-04-03T08:05:49;12.52;;;8.00;;
10226;SDS011;15634;48.766;2.272;2023-04-03T08:08:18;11.52;;;7.07;;
10226;SDS011;15634;48.766;2.272;2023-04-03T08:10:48;9.82;;;7.15;;
10226;SDS011;15634;48.766;2.272;2023-04-03T08:13:16;10.90;;;7.07;;
10226;SDS011;15634;48.766;2.272;2023-04-03T08:15:42;12.35;;;7.30;;
10226;SDS011;15634;48.766;2.272;2023-04-03T08:18:09;9.68;;;6.90;;
10226;SDS011;15634;48.766;2.272;2023-04-03T08:20:37;8.35;;;5.88;;
10226;SDS011;15634;48.766;2.272;2023-04-03T08:23:04;10.85;;;6.57;;
10226;SDS011;15634;48.766;2.272;2023-04-03T08:25:32;13.23;;;6.47;;
10226;SDS011;15634;48.766;2.272;2023-04-03T08:27:59;9.75;;;5.75;;
10226;SDS011;15634;48.766;2.272;2023-04-03T08:30:27;10.10;;;6.00;;
10226;SDS011;15634;48.766;2.272;2023-04-03T08:32:53;8.57;;;5.88;;
10226;SDS011;15634;48.766;2.272;2023-04-03T08:35:20;7.00;;;5.10;;
10226;SDS011;15634;48.766;2.272;2023-04-03T08:37:46;8.02;;;5.00;;
10226;SDS011;15634;48.766;2.272;2023-04-03T08:40:14;5.55;;;4.38;;
10226;SDS011;15634;48.766;2.272;2023-04-03T08:42:47;7.38;;;4.15;;
10226;SDS011;15634;48.766;2.272;2023-04-03T08:45:20;5.07;;;4.13;;
10226;SDS011;15634;48.766;2.272;2023-04-03T08:47:49;6.82;;;3.97;;
10226;SDS011;15634;48.766;2.272;2023-04-03T08:50:19;4.75;;;3.50;;
10226;SDS011;15634;48.766;2.272;2023-04-03T08:52:47;4.75;;;3.60;;
10226;SDS011;15634;48.766;2.272;2023-04-03T08:55:19;5.93;;;4.15;;
10226;SDS011;15634;48.766;2.272;2023-04-03T08:57:50;5.88;;;4.00;;
10226;SDS011;15634;48.766;2.272;2023-04-03T09:00:19;6.00;;;4.00;;
10226;SDS011;15634;48.766;2.272;2023-04-03T09:02:47;6.55;;;3.50;;
10226;SDS011;15634;48.766;2.272;2023-04-03T09:05:15;4.57;;;3.65;;
10226;SDS011;15634;48.766;2.272;2023-04-03T09:07:43;6.97;;;3.95;;
10226;SDS011;15634;48.766;2.272;2023-04-03T09:10:11;5.32;;;3.50;;
10226;SDS011;15634;48.766;2.272;2023-04-03T09:12:40;4.45;;;3.58;;
10226;SDS011;15634;48.766;2.272;2023-04-03T09:15:17;5.63;;;3.70;;
10226;SDS011;15634;48.766;2.272;2023-04-03T09:17:48;5.65;;;3.85;;
10226;SDS011;15634;48.766;2.272;2023-04-03T09:20:20;5.30;;;3.45;;
10226;SDS011;15634;48.766;2.272;2023-04-03T09:22:51;9.27;;;3.50;;
10226;SDS011;15634;48.766;2.272;2023-04-03T09:25:20;4.68;;;3.63;;
10226;SDS011;15634;48.766;2.272;2023-04-03T09:27:48;7.60;;;3.58;;
10226;SDS011;15634;48.766;2.272;2023-04-03T09:30:17;6.88;;;3.63;;
10226;SDS011;15634;48.766;2.272;2023-04-03T09:32:44;4.75;;;3.65;;
10226;SDS011;15634;48.766;2.272;2023-04-03T09:35:23;6.85;;;3.78;;
10226;SDS011;15634;48.766;2.272;2023-04-03T09:37:51;5.20;;;3.67;;
10226;SDS011;15634;48.766;2.272;2023-04-03T09:40:29;5.80;;;3.70;;
10226;SDS011;15634;48.766;2.272;2023-04-03T09:43:01;4.95;;;3.58;;
10226;SDS011;15634;48.766;2.272;2023-04-03T09:45:31;5.93;;;3.40;;
10226;SDS011;15634;48.766;2.272;2023-04-03T09:48:06;4.53;;;3.40;;
10226;SDS011;15634;48.766;2.272;2023-04-03T09:50:34;4.80;;;3.20;;
10226;SDS011;15634;48.766;2.272;2023-04-03T09:53:04;5.30;;;3.97;;
10226;SDS011;15634;48.766;2.272;2023-04-03T09:55:33;5.38;;;3.50;;
10226;SDS011;15634;48.766;2.272;2023-04-03T09:58:22;4.90;;;3.47;;
10226;SDS011;15634;48.766;2.272;2023-04-03T10:00:55;6.15;;;3.80;;
10226;SDS011;15634;48.766;2.272;2023-04-03T10:03:24;5.75;;;3.85;;
10226;SDS011;15634;48.766;2.272;2023-04-03T10:05:53;11.50;;;3.55;;
10226;SDS011;15634;48.766;2.272;2023-04-03T10:08:22;8.10;;;3.70;;
10226;SDS011;15634;48.766;2.272;2023-04-03T10:11:05;5.85;;;3.95;;
10226;SDS011;15634;48.766;2.272;2023-04-03T10:13:49;5.28;;;3.47;;
10226;SDS011;15634;48.766;2.272;2023-04-03T10:16:18;4.95;;;3.63;;
10226;SDS011;15634;48.766;2.272;2023-04-03T10:18:49;8.13;;;3.83;;
10226;SDS011;15634;48.766;2.272;2023-04-03T10:21:26;5.10;;;3.65;;
10226;SDS011;15634;48.766;2.272;2023-04-03T10:24:00;6.18;;;3.70;;
10226;SDS011;15634;48.766;2.272;2023-04-03T10:26:35;4.95;;;3.83;;
10226;SDS011;15634;48.766;2.272;2023-04-03T10:29:06;6.28;;;3.75;;
10226;SDS011;15634;48.766;2.272;2023-04-03T10:31:41;5.47;;;3.63;;
10226;SDS011;15634;48.766;2.272;2023-04-03T10:34:14;5.63;;;3.45;;
10226;SDS011;15634;48.766;2.272;2023-04-03T10:36:48;5.07;;;3.40;;
10226;SDS011;15634;48.766;2.272;2023-04-03T10:39:20;6.70;;;3.90;;
10226;SDS011;15634;48.766;2.272;2023-04-03T10:41:56;4.53;;;3.28;;
10226;SDS011;15634;48.766;2.272;2023-04-03T10:44:29;4.72;;;3.08;;
10226;SDS011;15634;48.766;2.272;2023-04-03T10:47:02;4.78;;;3.30;;
10226;SDS011;15634;48.766;2.272;2023-04-03T10:49:36;8.50;;;5.13;;
10226;SDS011;15634;48.766;2.272;2023-04-03T10:52:12;8.27;;;3.70;;
10226;SDS011;15634;48.766;2.272;2023-04-03T10:54:43;5.43;;;3.85;;
10226;SDS011;15634;48.766;2.272;2023-04-03T10:57:12;6.28;;;3.17;;
10226;SDS011;15634;48.766;2.272;2023-04-03T10:59:40;7.00;;;3.50;;
10226;SDS011;15634;48.766;2.272;2023-04-03T11:02:13;5.95;;;3.20;;
10226;SDS011;15634;48.766;2.272;2023-04-03T11:04:44;4.38;;;3.05;;
10226;SDS011;15634;48.766;2.272;2023-04-03T11:07:15;5.63;;;3.53;;
10226;SDS011;15634;48.766;2.272;2023-04-03T11:09:46;5.90;;;3.60;;
10226;SDS011;15634;48.766;2.272;2023-04-03T11:12:14;8.68;;;3.90;;
10226;SDS011;15634;48.766;2.272;2023-04-03T11:14:43;6.30;;;3.97;;
10226;SDS011;15634;48.766;2.272;2023-04-03T11:17:19;5.80;;;3.70;;
10226;SDS011;15634;48.766;2.272;2023-04-03T11:19:51;7.10;;;3.45;;
10226;SDS011;15634;48.766;2.272;2023-04-03T11:22:23;5.95;;;3.30;;
10226;SDS011;15634;48.766;2.272;2023-04-03T11:24:56;7.70;;;3.80;;
10226;SDS011;15634;48.766;2.272;2023-04-03T11:27:26;5.85;;;3.45;;
10226;SDS011;15634;48.766;2.272;2023-04-03T11:29:55;5.32;;;3.80;;
10226;SDS011;15634;48.766;2.272;2023-04-03T11:32:32;4.63;;;3.00;;
10226;SDS011;15634;48.766;2.272;2023-04-03T11:35:08;6.28;;;3.53;;
10226;SDS011;15634;48.766;2.272;2023-04-03T11:37:37;5.50;;;3.78;;
10226;SDS011;15634;48.766;2.272;2023-04-03T11:40:05;6.07;;;3.15;;
10226;SDS011;15634;48.766;2.272;2023-04-03T11:42:36;4.18;;;2.78;;
10226;SDS011;15634;48.766;2.272;2023-04-03T11:48:01;4.72;;;2.90;;
10226;SDS011;15634;48.766;2.272;2023-04-03T11:50:30;4.75;;;3.03;;
10226;SDS011;15634;48.766;2.272;2023-04-03T11:53:02;5.97;;;3.30;;
10226;SDS011;15634;48.766;2.272;2023-04-03T11:58:29;4.63;;;2.95;;
10226;SDS011;15634;48.766;2.272;2023-04-03T12:01:00;4.30;;;2.80;;
10226;SDS011;15634;48.766;2.272;2023-04-03T12:09:29;5.28;;;2.80;;
10226;SDS011;15634;48.766;2.272;2023-04-03T12:11:59;5.72;;;3.00;;
10226;SDS011;15634;48.766;2.272;2023-04-03T12:14:27;6.50;;;3.00;;
10226;SDS011;15634;48.766;2.272;2023-04-03T12:16:54;5.03;;;3.13;;
10226;SDS011;15634;48.766;2.272;2023-04-03T12:19:30;6.50;;;3.47;;
10226;SDS011;15634;48.766;2.272;2023-04-03T12:22:11;4.78;;;3.15;;
10226;SDS011;15634;48.766;2.272;2023-04-03T12:24:40;6.82;;;3.58;;
10226;SDS011;15634;48.766;2.272;2023-04-03T12:27:19;6.45;;;3.42;;
10226;SDS011;15634;48.766;2.272;2023-04-03T12:30:00;8.00;;;3.42;;
10226;SDS011;15634;48.766;2.272;2023-04-03T12:35:23;5.72;;;2.80;;
10226;SDS011;15634;48.766;2.272;2023-04-03T12:38:05;4.57;;;2.90;;
10226;SDS011;15634;48.766;2.272;2023-04-03T12:40:46;4.00;;;2.42;;
10226;SDS011;15634;48.766;2.272;2023-04-03T12:43:29;5.88;;;3.10;;
10226;SDS011;15634;48.766;2.272;2023-04-03T12:46:02;3.88;;;2.80;;
10226;SDS011;15634;48.766;2.272;2023-04-03T12:48:31;6.82;;;2.88;;
10226;SDS011;15634;48.766;2.272;2023-04-03T12:50:59;4.70;;;2.50;;
10226;SDS011;15634;48.766;2.272;2023-04-03T12:53:28;3.30;;;2.42;;
10226;SDS011;15634;48.766;2.272;2023-04-03T12:55:59;3.67;;;2.60;;
10226;SDS011;15634;48.766;2.272;2023-04-03T12:58:48;4.65;;;2.65;;
10226;SDS011;15634;48.766;2.272;2023-04-03T13:01:16;6.75;;;2.85;;
10226;SDS011;15634;48.766;2.272;2023-04-03T13:03:44;7.85;;;2.38;;
10226;SDS011;15634;48.766;2.272;2023-04-03T13:06:14;8.32;;;2.60;;
10226;SDS011;15634;48.766;2.272;2023-04-03T13:08:49;4.80;;;2.58;;
10226;SDS011;15634;48.766;2.272;2023-04-03T13:11:17;4.00;;;2.70;;
10226;SDS011;15634;48.766;2.272;2023-04-03T13:13:53;5.30;;;2.70;;
10226;SDS011;15634;48.766;2.272;2023-04-03T13:16:24;3.53;;;2.40;;
10226;SDS011;15634;48.766;2.272;2023-04-03T13:18:52;4.70;;;2.78;;
10226;SDS011;15634;48.766;2.272;2023-04-03T13:21:19;7.03;;;3.20;;
10226;SDS011;15634;48.766;2.272;2023-04-03T13:23:50;4.80;;;2.83;;
10226;SDS011;15634;48.766;2.272;2023-04-03T13:26:18;3.33;;;2.58;;
10226;SDS011;15634;48.766;2.272;2023-04-03T13:28:46;4.80;;;2.60;;
10226;SDS011;15634;48.766;2.272;2023-04-03T13:31:18;4.25;;;2.50;;
10226;SDS011;15634;48.766;2.272;2023-04-03T13:33:52;4.85;;;2.78;;
10226;SDS011;15634;48.766;2.272;2023-04-03T13:36:22;4.35;;;2.33;;
10226;SDS011;15634;48.766;2.272;2023-04-03T13:38:58;3.72;;;2.25;;
10226;SDS011;15634;48.766;2.272;2023-04-03T13:41:29;4.13;;;2.70;;
10226;SDS011;15634;48.766;2.272;2023-04-03T13:43:57;5.65;;;2.90;;
10226;SDS011;15634;48.766;2.272;2023-04-03T13:46:41;3.88;;;2.45;;
10226;SDS011;15634;48.766;2.272;2023-04-03T13:49:17;7.03;;;2.80;;
10226;SDS011;15634;48.766;2.272;2023-04-03T13:51:45;6.30;;;2.60;;
10226;SDS011;15634;48.766;2.272;2023-04-03T13:54:16;5.93;;;3.08;;
10226;SDS011;15634;48.766;2.272;2023-04-03T13:59:22;7.95;;;2.70;;
10226;SDS011;15634;48.766;2.272;2023-04-03T14:01:51;4.45;;;2.65;;
10226;SDS011;15634;48.766;2.272;2023-04-03T14:04:20;3.85;;;2.42;;
10226;SDS011;15634;48.766;2.272;2023-04-03T14:06:48;5.80;;;2.65;;
10226;SDS011;15634;48.766;2.272;2023-04-03T14:09:17;6.97;;;2.50;;
10226;SDS011;15634;48.766;2.272;2023-04-03T14:11:44;5.53;;;2.80;;
10226;SDS011;15634;48.766;2.272;2023-04-03T14:14:13;3.83;;;2.55;;
10226;SDS011;15634;48.766;2.272;2023-04-03T14:16:43;3.25;;;2.53;;
10226;SDS011;15634;48.766;2.272;2023-04-03T14:19:17;5.38;;;2.63;;
10226;SDS011;15634;48.766;2.272;2023-04-03T14:21:46;5.88;;;2.90;;
10226;SDS011;15634;48.766;2.272;2023-04-03T14:24:13;4.40;;;2.83;;
10226;SDS011;15634;48.766;2.272;2023-04-03T14:26:43;3.63;;;2.78;;
10226;SDS011;15634;48.766;2.272;2023-04-03T14:29:10;3.83;;;2.40;;
10226;SDS011;15634;48.766;2.272;2023-04-03T14:31:38;3.42;;;2.33;;
10226;SDS011;15634;48.766;2.272;2023-04-03T14:34:06;5.07;;;2.80;;
10226;SDS011;15634;48.766;2.272;2023-04-03T14:36:33;4.68;;;2.90;;
10226;SDS011;15634;48.766;2.272;2023-04-03T14:39:00;6.85;;;3.10;;
10226;SDS011;15634;48.766;2.272;2023-04-03T14:41:27;3.58;;;2.80;;
10226;SDS011;15634;48.766;2.272;2023-04-03T14:43:56;6.28;;;2.85;;
10226;SDS011;15634;48.766;2.272;2023-04-03T14:46:26;4.90;;;2.80;;
10226;SDS011;15634;48.766;2.272;2023-04-03T14:48:54;4.90;;;2.85;;
10226;SDS011;15634;48.766;2.272;2023-04-03T14:51:21;4.28;;;2.70;;
10226;SDS011;15634;48.766;2.272;2023-04-03T14:53:48;4.10;;;2.70;;
10226;SDS011;15634;48.766;2.272;2023-04-03T14:56:16;5.35;;;2.70;;
10226;SDS011;15634;48.766;2.272;2023-04-03T14:58:47;4.28;;;2.40;;
10226;SDS011;15634;48.766;2.272;2023-04-03T15:01:17;3.67;;;2.50;;
10226;SDS011;15634;48.766;2.272;2023-04-03T15:03:44;5.30;;;2.63;;
10226;SDS011;15634;48.766;2.272;2023-04-03T15:06:11;3.63;;;2.45;;